Terminal Aerodrome Forecast
Issued by NWS Brownsville, TX

Home | Current Version | Previous Version | Text Only | Print | Product List | Glossary On
Versions: 1 2 3 4 5 6 7 8 9 10 11 12 13 14 15 16 17 18 19 20 21 22 23 24
000
FTUS44 KBRO 111100
TAFMFE
TAF
KMFE 111126Z 1112/1212 12007KT 6SM BR OVC250
     FM111500 15012KT P6SM SCT030 BKN250
     FM111800 14015G25KT P6SM SCT040 SCT250
     FM120300 11006KT P6SM BKN250=

USA.gov is the U.S. government's official web portal to all federal, state and local government web resources and services.